This is the latest recevied weather packets stored in our database for station/object EW2310. If no packets are shown the sender has not sent any weather packets the latest 10 day(s).
| Time | Temp. | Humidity | Pressure | Rain* | Wind** | Luminosity | Snow |
|---|---|---|---|---|---|---|---|
| 1777399242 | 18.33° C | 62% | 1013.5 hPa | 0 mm | - | 7 W/m² | - |
| 1777398941 | 18.33° C | 61% | 1013.5 hPa | 0 mm | - | 11 W/m² | - |
| 1777397144 | 19.44° C | 55% | 1013.5 hPa | 0 mm | - | 23 W/m² | - |
| 1777395945 | 20° C | 53% | 1013.3 hPa | 0 mm | - | 91 W/m² | - |
| 1777394742 | 20° C | 50% | 1013.4 hPa | 0 mm | - | 169 W/m² | - |
| 1777393542 | 20° C | 54% | 1013.4 hPa | 0 mm | - | 248 W/m² | - |
| 1777392041 | 20.56° C | 47% | 1013.5 hPa | 0 mm | - | 334 W/m² | - |
| 1777391441 | 21.11° C | 46% | 1013.5 hPa | 0 mm | - | 369 W/m² | - |
| 1777388741 | 21.67° C | 42% | 1013.5 hPa | 0 mm | - | 520 W/m² | - |
| 1777382444 | 21.67° C | 45% | 1014.2 hPa | 0 mm | - | 807 W/m² | - |
| 1777381541 | 21.67° C | 41% | 1014.2 hPa | 0 mm | - | 838 W/m² | - |
| 1777381242 | 22.22° C | 43% | 1014.3 hPa | 0 mm | - | 849 W/m² | - |
| 1777380041 | 22.22° C | 37% | 1014.3 hPa | 0 mm | - | 886 W/m² | - |
| 1777379741 | 22.22° C | 39% | 1014.4 hPa | 0 mm | - | 891 W/m² | - |
| 1777377941 | 21.67° C | 40% | 1014.3 hPa | 0 mm | - | 930 W/m² | - |
| 1777375241 | 22.22° C | 46% | 1014.6 hPa | 0 mm | - | 953 W/m² | - |
| 1777374041 | 22.22° C | 48% | 1014.7 hPa | 0 mm | - | 956 W/m² | - |
| 1777373741 | 22.22° C | 48% | 1014.7 hPa | 0 mm | - | 954 W/m² | - |
| 1777371942 | 21.67° C | 51% | 1014.6 hPa | 0 mm | - | 942 W/m² | - |
| 1777371645 | 21.67° C | 49% | 1014.7 hPa | 0 mm | - | 940 W/m² | - |
| 1777367442 | 21.11° C | 54% | 1015 hPa | 0 mm | - | 849 W/m² | - |
| 1777366841 | 21.67° C | 53% | 1015 hPa | 0 mm | - | 798 W/m² | - |
| 1777365941 | 21.67° C | 52% | 1014.8 hPa | 0 mm | - | 668 W/m² | - |
| 1777360244 | 18.33° C | 55% | 1014.6 hPa | 0 mm | - | 538 W/m² | - |
| 1777359644 | 18.33° C | 55% | 1014.6 hPa | 0 mm | - | 466 W/m² | - |
* Rain latest hour (hover to see other rain measurements)
** Current wind speed in m/s (hover to see current wind gust speed)